createdAt,value
2023-01-29T00:00:14.397Z,8.75
2023-01-29T00:02:42.913Z,10.00
2023-01-29T00:05:26.384Z,9.25
2023-01-29T00:07:55.350Z,9.25
2023-01-29T00:10:24.525Z,10.25
2023-01-29T00:12:52.874Z,9.50
2023-01-29T00:15:21.700Z,9.00
2023-01-29T00:17:49.999Z,9.50
2023-01-29T00:20:19.122Z,8.25
2023-01-29T00:22:47.679Z,11.00
2023-01-29T00:25:16.078Z,14.00
2023-01-29T00:27:45.684Z,10.25
2023-01-29T00:30:14.782Z,11.50
2023-01-29T00:32:43.697Z,11.00
2023-01-29T00:35:12.837Z,13.00
2023-01-29T00:37:41.234Z,15.50
2023-01-29T00:40:10.642Z,13.00
2023-01-29T00:42:57.152Z,14.50
2023-01-29T00:45:25.521Z,13.25
2023-01-29T00:47:53.786Z,12.75
2023-01-29T00:50:22.301Z,13.75
2023-01-29T00:52:52.629Z,10.50
2023-01-29T00:55:21.013Z,10.50
2023-01-29T00:57:49.507Z,10.75
2023-01-29T01:00:19.991Z,11.25
2023-01-29T01:03:06.545Z,9.50
2023-01-29T01:05:35.305Z,9.25
2023-01-29T01:08:03.640Z,9.00
2023-01-29T01:10:34.506Z,10.50
2023-01-29T01:13:06.156Z,11.00
2023-01-29T01:15:40.072Z,10.00
2023-01-29T01:18:08.830Z,11.00
2023-01-29T01:20:37.935Z,10.00
2023-01-29T01:23:06.720Z,12.50
2023-01-29T01:25:35.395Z,10.75
2023-01-29T01:28:03.716Z,9.25
2023-01-29T01:30:32.100Z,11.00
2023-01-29T01:33:00.374Z,10.00
2023-01-29T01:35:28.670Z,10.00
2023-01-29T01:37:57.082Z,11.00
2023-01-29T01:40:27.003Z,11.00
2023-01-29T01:42:58.533Z,11.00
2023-01-29T01:45:32.120Z,12.00
2023-01-29T01:48:00.429Z,9.75
2023-01-29T01:50:36.993Z,11.25
2023-01-29T01:53:14.711Z,10.00
2023-01-29T01:55:57.412Z,9.25
2023-01-29T01:58:37.935Z,11.00
2023-01-29T02:01:09.392Z,11.00
2023-01-29T02:04:03.304Z,11.00
2023-01-29T02:06:51.377Z,12.00
2023-01-29T02:09:36.745Z,11.00
2023-01-29T02:12:07.962Z,10.00
2023-01-29T02:14:41.744Z,10.00
2023-01-29T02:17:25.885Z,9.25
2023-01-29T02:20:06.934Z,10.00
2023-01-29T02:22:48.421Z,10.75
2023-01-29T02:25:34.667Z,9.00
2023-01-29T02:28:05.658Z,10.00
2023-01-29T02:30:45.831Z,11.00
2023-01-29T02:33:33.192Z,11.00
2023-01-29T02:36:26.294Z,8.25
2023-01-29T02:39:10.839Z,11.00
2023-01-29T02:41:52.131Z,9.00
2023-01-29T02:44:38.251Z,10.50
2023-01-29T02:47:32.460Z,10.50
2023-01-29T02:50:25.051Z,10.00
2023-01-29T02:53:27.241Z,11.00
2023-01-29T02:56:22.868Z,11.50
2023-01-29T02:59:03.136Z,9.00
2023-01-29T03:01:49.798Z,9.00
2023-01-29T03:04:24.024Z,10.25
2023-01-29T03:06:59.812Z,12.00
2023-01-29T03:09:47.928Z,11.00
2023-01-29T03:12:34.739Z,9.00
2023-01-29T03:15:26.002Z,9.00
2023-01-29T03:18:10.112Z,9.00
2023-01-29T03:20:52.507Z,9.75
2023-01-29T03:23:48.774Z,11.00
2023-01-29T03:26:39.337Z,9.25
2023-01-29T03:29:28.516Z,8.75
2023-01-29T03:32:07.760Z,10.50
2023-01-29T03:34:52.690Z,8.75
2023-01-29T03:37:28.434Z,9.25
2023-01-29T03:39:57.246Z,9.75
2023-01-29T03:42:30.795Z,9.00
2023-01-29T03:45:10.348Z,9.75
2023-01-29T03:47:52.096Z,10.75
2023-01-29T03:50:41.628Z,8.50
2023-01-29T03:53:23.165Z,8.50
2023-01-29T03:56:03.224Z,8.25
2023-01-29T03:58:34.499Z,9.25
2023-01-29T04:01:11.132Z,9.25
2023-01-29T04:03:53.794Z,8.25
2023-01-29T04:06:25.700Z,9.25
2023-01-29T04:09:23.122Z,9.00
2023-01-29T04:12:01.135Z,9.75
2023-01-29T04:14:30.906Z,8.75
2023-01-29T04:17:03.375Z,8.75
2023-01-29T04:19:32.140Z,8.75
2023-01-29T04:22:25.600Z,9.50
2023-01-29T04:24:54.442Z,8.00
2023-01-29T04:27:41.941Z,9.00
2023-01-29T04:30:36.802Z,7.25
2023-01-29T04:33:11.254Z,8.75
2023-01-29T04:36:15.806Z,7.00
2023-01-29T04:39:00.620Z,9.75
2023-01-29T04:41:38.666Z,5.75
2023-01-29T04:44:34.641Z,9.00
2023-01-29T04:47:27.969Z,8.25
2023-01-29T04:50:28.254Z,8.25
2023-01-29T04:53:26.548Z,7.25
2023-01-29T04:56:06.168Z,8.50
2023-01-29T04:58:43.141Z,10.25
2023-01-29T05:01:15.322Z,7.25
2023-01-29T05:03:48.639Z,9.00
2023-01-29T05:06:19.185Z,8.50
2023-01-29T05:08:50.318Z,10.25
2023-01-29T05:11:21.155Z,9.50
2023-01-29T05:13:50.664Z,10.00
2023-01-29T05:16:23.387Z,10.50
2023-01-29T05:18:51.836Z,10.00
2023-01-29T05:21:21.039Z,8.25
2023-01-29T05:24:06.938Z,7.75
2023-01-29T05:26:54.020Z,8.50
2023-01-29T05:29:23.384Z,8.00
2023-01-29T05:31:51.692Z,7.00
2023-01-29T05:34:20.103Z,9.00
2023-01-29T05:36:48.523Z,7.25
2023-01-29T05:39:17.211Z,7.75
2023-01-29T05:41:45.623Z,8.75
2023-01-29T05:44:14.006Z,9.00
2023-01-29T05:46:42.909Z,9.00
2023-01-29T05:49:11.176Z,8.00
2023-01-29T05:51:39.966Z,7.50
2023-01-29T05:54:08.280Z,7.75
2023-01-29T05:56:36.575Z,7.50
2023-01-29T05:59:04.943Z,8.75
2023-01-29T06:01:33.413Z,6.75
2023-01-29T06:04:01.797Z,8.25
2023-01-29T06:06:30.100Z,8.50
2023-01-29T06:08:58.429Z,10.50
2023-01-29T06:11:27.061Z,10.50
2023-01-29T06:13:55.382Z,8.50
2023-01-29T06:16:23.712Z,8.00
2023-01-29T06:18:52.032Z,8.00
2023-01-29T06:21:20.336Z,7.75
2023-01-29T06:23:48.972Z,7.50
2023-01-29T06:26:17.721Z,7.25
2023-01-29T06:28:46.901Z,8.00
2023-01-29T06:31:35.254Z,6.50
2023-01-29T06:34:03.563Z,7.50
2023-01-29T06:36:32.106Z,6.50
2023-01-29T06:39:00.518Z,6.25
2023-01-29T06:41:29.553Z,9.00
2023-01-29T06:43:57.864Z,8.75
2023-01-29T06:46:26.230Z,5.00
2023-01-29T06:48:54.566Z,6.00
2023-01-29T06:51:23.920Z,8.75
2023-01-29T06:53:52.273Z,8.50
2023-01-29T06:56:20.567Z,4.50
2023-01-29T06:58:48.921Z,7.00
2023-01-29T07:01:33.375Z,8.50
2023-01-29T07:04:03.899Z,7.00
2023-01-29T07:06:33.021Z,8.00
2023-01-29T07:09:01.734Z,7.00
2023-01-29T07:11:30.070Z,7.25
2023-01-29T07:13:58.681Z,6.00
2023-01-29T07:16:27.419Z,7.50
2023-01-29T07:18:55.850Z,9.00
2023-01-29T07:21:24.340Z,7.25
2023-01-29T07:23:52.692Z,8.00
2023-01-29T07:26:21.095Z,8.25
2023-01-29T07:28:49.414Z,7.00
2023-01-29T07:31:17.981Z,7.00
2023-01-29T07:33:46.656Z,6.25
2023-01-29T07:36:17.472Z,7.50
2023-01-29T07:38:49.839Z,8.00
2023-01-29T07:41:18.150Z,6.50
2023-01-29T07:43:46.456Z,7.50
2023-01-29T07:46:15.026Z,8.50
2023-01-29T07:48:43.359Z,6.25
2023-01-29T07:51:11.690Z,9.25
2023-01-29T07:53:40.201Z,9.00
2023-01-29T07:56:09.106Z,9.50
2023-01-29T07:58:37.496Z,8.00
2023-01-29T08:01:09.444Z,8.25
2023-01-29T08:03:38.243Z,7.00
2023-01-29T08:06:07.100Z,10.00
2023-01-29T08:08:35.445Z,8.00
2023-01-29T08:11:06.481Z,7.25
2023-01-29T08:13:35.049Z,10.50
2023-01-29T08:16:05.365Z,8.00
2023-01-29T08:18:33.671Z,8.00
2023-01-29T08:21:03.150Z,6.75
2023-01-29T08:23:31.918Z,8.00
2023-01-29T08:26:00.321Z,9.00
2023-01-29T08:28:28.737Z,8.75
2023-01-29T08:30:57.299Z,8.75
2023-01-29T08:33:40.607Z,8.75
2023-01-29T08:36:10.202Z,8.50
2023-01-29T08:38:38.589Z,8.00
2023-01-29T08:41:07.272Z,8.50
2023-01-29T08:43:38.008Z,8.50
2023-01-29T08:46:07.930Z,8.00
2023-01-29T08:48:36.461Z,8.50
2023-01-29T08:51:05.531Z,5.75
2023-01-29T08:53:34.172Z,7.50
2023-01-29T08:56:02.850Z,7.75
2023-01-29T08:58:31.165Z,6.75
2023-01-29T09:01:11.170Z,5.00
2023-01-29T09:03:41.990Z,7.25
2023-01-29T09:06:11.952Z,8.25
2023-01-29T09:08:40.864Z,8.25
2023-01-29T09:11:09.825Z,7.00
2023-01-29T09:13:38.742Z,8.00
2023-01-29T09:16:07.404Z,7.00
2023-01-29T09:18:35.681Z,6.00
2023-01-29T09:21:04.144Z,7.00
2023-01-29T09:23:32.591Z,6.50
2023-01-29T09:26:01.379Z,6.50
2023-01-29T09:28:29.777Z,5.25
2023-01-29T09:30:58.256Z,7.00
2023-01-29T09:33:27.119Z,7.00
2023-01-29T09:35:55.400Z,6.75
2023-01-29T09:38:23.762Z,7.25
2023-01-29T09:41:16.104Z,6.75
2023-01-29T09:43:58.259Z,8.00
2023-01-29T09:46:37.220Z,8.00
2023-01-29T09:49:32.590Z,7.75
2023-01-29T09:52:04.994Z,7.00
2023-01-29T09:54:54.436Z,7.75
2023-01-29T09:57:34.525Z,8.25
2023-01-29T10:00:02.947Z,7.00
2023-01-29T10:02:55.647Z,7.50
2023-01-29T10:05:33.568Z,7.75
2023-01-29T10:08:13.637Z,9.25
2023-01-29T10:10:58.990Z,8.75
2023-01-29T10:13:41.196Z,9.00
2023-01-29T10:16:31.945Z,6.00
2023-01-29T10:19:07.023Z,8.75
2023-01-29T10:22:11.085Z,9.00
2023-01-29T10:24:52.247Z,9.50
2023-01-29T10:27:21.079Z,10.00
2023-01-29T10:29:54.858Z,8.50
2023-01-29T10:32:27.392Z,7.25
2023-01-29T10:35:15.775Z,7.00
2023-01-29T10:37:45.310Z,7.25
2023-01-29T10:40:39.568Z,9.50
2023-01-29T10:43:36.687Z,11.00
2023-01-29T10:46:27.923Z,11.00
2023-01-29T10:48:59.401Z,9.25
2023-01-29T10:51:35.842Z,11.00
2023-01-29T10:54:16.038Z,11.25
2023-01-29T10:56:44.288Z,10.75
2023-01-29T10:59:35.366Z,7.00
2023-01-29T11:02:04.376Z,9.00
2023-01-29T11:04:33.826Z,7.00
2023-01-29T11:07:02.330Z,9.25
2023-01-29T11:09:56.353Z,9.00
2023-01-29T11:12:31.349Z,8.00
2023-01-29T11:15:20.908Z,7.50
2023-01-29T11:18:12.524Z,6.25
2023-01-29T11:20:42.726Z,8.00
2023-01-29T11:23:33.044Z,7.00
2023-01-29T11:26:02.195Z,8.00
2023-01-29T11:28:56.737Z,7.00
2023-01-29T11:31:29.177Z,8.75
2023-01-29T11:34:14.365Z,7.75
2023-01-29T11:36:42.684Z,7.75
2023-01-29T11:39:24.583Z,7.75
2023-01-29T11:42:14.115Z,9.00
2023-01-29T11:44:44.409Z,8.00
2023-01-29T11:47:20.610Z,9.00
2023-01-29T11:49:55.240Z,8.75
2023-01-29T11:52:27.239Z,7.00
2023-01-29T11:55:20.675Z,9.50
2023-01-29T11:58:05.641Z,7.25
2023-01-29T12:00:37.573Z,8.00
2023-01-29T12:03:25.124Z,8.00
2023-01-29T12:06:04.530Z,8.25
2023-01-29T12:08:38.899Z,8.75
2023-01-29T12:11:13.999Z,10.00
2023-01-29T12:13:47.401Z,9.75
2023-01-29T12:16:55.715Z,8.75
2023-01-29T12:19:30.113Z,9.00
2023-01-29T12:22:24.029Z,11.75
2023-01-29T12:25:21.531Z,9.50
2023-01-29T12:28:09.649Z,10.00
2023-01-29T12:30:56.027Z,11.00
2023-01-29T12:33:45.349Z,10.25
2023-01-29T12:36:37.219Z,12.00
2023-01-29T12:39:05.947Z,9.25
2023-01-29T12:41:39.130Z,9.75
2023-01-29T12:44:20.260Z,11.00
2023-01-29T12:46:54.986Z,11.00
2023-01-29T12:49:44.738Z,12.75
2023-01-29T12:52:47.885Z,10.75
2023-01-29T12:55:36.218Z,14.25
2023-01-29T12:58:11.424Z,14.50
2023-01-29T13:00:47.649Z,13.75
2023-01-29T13:03:24.240Z,14.00
2023-01-29T13:06:00.634Z,10.75
2023-01-29T13:08:39.459Z,12.50
2023-01-29T13:11:31.144Z,11.50
2023-01-29T13:14:29.809Z,13.75
2023-01-29T13:17:28.911Z,11.50
2023-01-29T13:20:01.963Z,13.00
2023-01-29T13:22:42.075Z,12.75
2023-01-29T13:25:18.300Z,14.50
2023-01-29T13:27:48.767Z,13.75
2023-01-29T13:30:26.281Z,13.00
2023-01-29T13:32:56.470Z,13.00
2023-01-29T13:35:25.317Z,14.50
2023-01-29T13:37:56.866Z,12.50
2023-01-29T13:40:29.201Z,14.25
2023-01-29T13:43:00.377Z,15.00
2023-01-29T13:45:32.879Z,16.00
2023-01-29T13:48:28.632Z,15.00
2023-01-29T13:51:01.433Z,13.25
2023-01-29T13:53:39.655Z,15.00
2023-01-29T13:56:30.935Z,14.75
2023-01-29T13:58:59.518Z,14.75
2023-01-29T14:02:04.923Z,14.75
2023-01-29T14:04:34.980Z,14.50
2023-01-29T14:07:23.690Z,15.25
2023-01-29T14:09:52.013Z,12.50
2023-01-29T14:12:23.378Z,15.75
2023-01-29T14:14:57.780Z,13.00
2023-01-29T14:17:28.192Z,14.00
2023-01-29T14:20:05.938Z,13.00
2023-01-29T14:22:34.906Z,13.25
2023-01-29T14:25:07.853Z,16.00
2023-01-29T14:27:38.370Z,15.75
2023-01-29T14:30:17.714Z,16.75
2023-01-29T14:32:50.928Z,14.00
2023-01-29T14:35:26.668Z,16.00
2023-01-29T14:38:07.235Z,14.25
2023-01-29T14:40:37.990Z,16.75
2023-01-29T14:43:21.885Z,15.25
2023-01-29T14:45:50.659Z,12.25
2023-01-29T14:48:37.953Z,15.50
2023-01-29T14:51:18.976Z,14.00
2023-01-29T14:54:14.572Z,14.50
2023-01-29T14:57:09.691Z,16.00
2023-01-29T15:00:06.288Z,14.00
2023-01-29T15:02:42.708Z,13.25
2023-01-29T15:05:37.749Z,16.75
2023-01-29T15:08:33.220Z,15.25
2023-01-29T15:11:27.595Z,16.00
2023-01-29T15:14:08.432Z,14.25
2023-01-29T15:17:01.827Z,13.25
2023-01-29T15:19:41.177Z,15.00
2023-01-29T15:22:10.759Z,14.25
2023-01-29T15:24:40.912Z,13.75
2023-01-29T15:27:19.589Z,15.75
2023-01-29T15:30:00.392Z,13.75
2023-01-29T15:32:41.151Z,14.00
2023-01-29T15:35:19.959Z,15.50
2023-01-29T15:38:04.395Z,13.25
2023-01-29T15:40:33.464Z,14.00
2023-01-29T15:43:02.038Z,14.75
2023-01-29T15:45:35.090Z,14.25
2023-01-29T15:48:15.146Z,11.50
2023-01-29T15:50:44.757Z,13.75
2023-01-29T15:53:21.294Z,12.50
2023-01-29T15:55:52.513Z,12.00
2023-01-29T15:58:29.203Z,11.75
2023-01-29T16:01:00.656Z,13.50
2023-01-29T16:03:33.796Z,14.25
2023-01-29T16:06:03.455Z,13.00
2023-01-29T16:08:31.936Z,12.00
2023-01-29T16:11:04.708Z,11.75
2023-01-29T16:13:36.997Z,13.75
2023-01-29T16:16:18.027Z,14.00
2023-01-29T16:18:59.488Z,12.00
2023-01-29T16:21:28.907Z,11.75
2023-01-29T16:24:00.735Z,13.25
2023-01-29T16:26:36.303Z,12.50
2023-01-29T16:29:13.265Z,11.00
2023-01-29T16:31:43.769Z,12.50
2023-01-29T16:34:28.936Z,11.00
2023-01-29T16:36:58.759Z,10.50
2023-01-29T16:39:31.663Z,11.50
2023-01-29T16:42:13.240Z,12.25
2023-01-29T16:44:46.509Z,11.00
2023-01-29T16:47:21.934Z,9.75
2023-01-29T16:49:52.806Z,9.25
2023-01-29T16:52:21.273Z,12.00
2023-01-29T16:54:49.770Z,11.25
2023-01-29T16:57:26.022Z,12.00
2023-01-29T17:00:00.574Z,11.25
2023-01-29T17:02:39.700Z,8.75
2023-01-29T17:05:11.094Z,11.00
2023-01-29T17:07:39.769Z,10.00
2023-01-29T17:10:08.960Z,10.50
2023-01-29T17:12:38.877Z,11.75
2023-01-29T17:15:32.360Z,13.00
2023-01-29T17:18:01.257Z,12.25
2023-01-29T17:20:31.200Z,12.00
2023-01-29T17:22:59.838Z,11.50
2023-01-29T17:25:29.500Z,11.00
2023-01-29T17:28:00.866Z,10.75
2023-01-29T17:30:33.196Z,12.75
2023-01-29T17:33:03.805Z,12.25
2023-01-29T17:35:32.101Z,11.50
2023-01-29T17:38:00.385Z,11.25
2023-01-29T17:40:40.719Z,10.25
2023-01-29T17:43:12.549Z,10.50
2023-01-29T17:45:41.449Z,9.00
2023-01-29T17:48:30.712Z,10.50
2023-01-29T17:51:03.897Z,10.00
2023-01-29T17:53:45.379Z,11.25
2023-01-29T17:56:20.291Z,12.00
2023-01-29T17:58:48.716Z,10.50
2023-01-29T18:01:17.313Z,11.25
2023-01-29T18:03:45.765Z,12.00
2023-01-29T18:06:28.092Z,12.00
2023-01-29T18:08:57.369Z,10.25
2023-01-29T18:11:26.255Z,11.50
2023-01-29T18:13:54.909Z,10.50
2023-01-29T18:16:23.934Z,12.25
2023-01-29T18:18:53.214Z,12.00
2023-01-29T18:21:21.593Z,13.00
2023-01-29T18:23:49.883Z,10.00
2023-01-29T18:26:18.672Z,10.00
2023-01-29T18:28:47.062Z,11.00
2023-01-29T18:31:15.474Z,12.75
2023-01-29T18:33:43.792Z,14.00
2023-01-29T18:36:12.092Z,12.75
2023-01-29T18:38:41.085Z,12.25
2023-01-29T18:41:13.956Z,13.50
2023-01-29T18:43:43.927Z,15.25
2023-01-29T18:46:12.370Z,13.25
2023-01-29T18:48:42.601Z,14.50
2023-01-29T18:51:11.574Z,12.25
2023-01-29T18:53:39.984Z,12.50
2023-01-29T18:56:08.762Z,12.00
2023-01-29T18:58:37.906Z,12.50
2023-01-29T19:01:10.332Z,13.25
2023-01-29T19:03:40.099Z,13.75
2023-01-29T19:06:11.113Z,13.00
2023-01-29T19:08:40.657Z,14.00
2023-01-29T19:11:09.909Z,12.75
2023-01-29T19:13:39.071Z,14.25
2023-01-29T19:16:11.735Z,14.50
2023-01-29T19:18:40.230Z,14.25
2023-01-29T19:21:11.904Z,12.75
2023-01-29T19:23:41.433Z,12.25
2023-01-29T19:26:10.882Z,13.00
2023-01-29T19:28:39.212Z,15.50
2023-01-29T19:31:07.705Z,12.00
2023-01-29T19:33:36.118Z,13.50
2023-01-29T19:36:04.488Z,14.25
2023-01-29T19:38:34.600Z,13.25
2023-01-29T19:41:03.044Z,12.75
2023-01-29T19:43:32.731Z,16.00
2023-01-29T19:46:02.688Z,14.00
2023-01-29T19:48:31.050Z,14.75
2023-01-29T19:51:01.815Z,13.25
2023-01-29T19:53:30.587Z,12.75
2023-01-29T19:56:05.368Z,14.75
2023-01-29T19:58:34.735Z,14.00
2023-01-29T20:01:09.369Z,15.50
2023-01-29T20:03:38.961Z,13.00
2023-01-29T20:06:08.058Z,15.00
2023-01-29T20:08:36.833Z,15.25
2023-01-29T20:11:06.471Z,15.75
2023-01-29T20:13:35.357Z,16.75
2023-01-29T20:16:06.337Z,15.75
2023-01-29T20:18:34.833Z,15.50
2023-01-29T20:21:09.143Z,14.25
2023-01-29T20:23:38.822Z,13.00
2023-01-29T20:26:15.440Z,16.00
2023-01-29T20:28:44.321Z,14.75
2023-01-29T20:31:12.760Z,13.50
2023-01-29T20:33:41.559Z,14.50
2023-01-29T20:36:12.198Z,16.25
2023-01-29T20:38:40.803Z,12.25
2023-01-29T20:41:17.439Z,13.00
2023-01-29T20:43:46.533Z,16.00
2023-01-29T20:46:14.988Z,14.50
2023-01-29T20:48:43.778Z,13.25
2023-01-29T20:51:18.033Z,17.00
2023-01-29T20:53:48.832Z,13.25
2023-01-29T20:56:18.142Z,14.00
2023-01-29T20:58:49.051Z,11.75
2023-01-29T21:01:19.966Z,13.50
2023-01-29T21:03:49.242Z,12.75
2023-01-29T21:06:17.564Z,15.00
2023-01-29T21:08:45.930Z,11.25
2023-01-29T21:11:14.353Z,12.00
2023-01-29T21:13:43.546Z,12.25
2023-01-29T21:16:12.270Z,11.00
2023-01-29T21:18:41.025Z,12.00
2023-01-29T21:21:09.410Z,13.75
2023-01-29T21:23:37.731Z,12.25
2023-01-29T21:26:07.764Z,12.00
2023-01-29T21:28:36.474Z,11.00
2023-01-29T21:31:11.057Z,10.50
2023-01-29T21:33:39.870Z,11.75
2023-01-29T21:36:09.376Z,12.00
2023-01-29T21:38:38.089Z,10.50
2023-01-29T21:41:10.528Z,9.50
2023-01-29T21:43:39.117Z,12.00
2023-01-29T21:46:14.806Z,11.50
2023-01-29T21:48:43.246Z,11.75
2023-01-29T21:51:11.811Z,10.00
2023-01-29T21:53:40.109Z,11.00
2023-01-29T21:56:08.580Z,10.75
2023-01-29T21:58:36.928Z,10.75
2023-01-29T22:01:36.559Z,9.25
2023-01-29T22:03:53.571Z,9.75
2023-01-29T22:06:22.082Z,9.00
2023-01-29T22:08:51.316Z,12.25
2023-01-29T22:11:19.812Z,11.25
2023-01-29T22:13:48.099Z,11.25
2023-01-29T22:16:16.411Z,10.75
2023-01-29T22:18:44.710Z,10.25
2023-01-29T22:21:13.048Z,9.50
2023-01-29T22:23:41.454Z,10.25
2023-01-29T22:26:10.756Z,11.75
2023-01-29T22:28:39.122Z,11.50
2023-01-29T22:31:07.493Z,10.00
2023-01-29T22:33:36.248Z,9.00
2023-01-29T22:36:05.572Z,9.00
2023-01-29T22:38:33.886Z,9.75
2023-01-29T22:41:02.628Z,11.50
2023-01-29T22:43:31.184Z,10.25
2023-01-29T22:45:59.559Z,11.75
2023-01-29T22:48:29.518Z,9.50
2023-01-29T22:51:10.486Z,10.75
2023-01-29T22:53:44.984Z,9.75
2023-01-29T22:56:13.530Z,13.25
2023-01-29T22:58:42.137Z,12.25
2023-01-29T23:01:10.532Z,12.00
2023-01-29T23:03:38.844Z,11.75
2023-01-29T23:06:07.176Z,10.00
2023-01-29T23:08:35.602Z,9.25
2023-01-29T23:11:19.518Z,10.75
2023-01-29T23:13:55.844Z,10.50
2023-01-29T23:16:28.174Z,10.75
2023-01-29T23:18:57.732Z,13.25
2023-01-29T23:21:26.595Z,11.50
2023-01-29T23:23:57.887Z,14.75
2023-01-29T23:26:45.056Z,15.00
2023-01-29T23:29:13.846Z,17.25
2023-01-29T23:31:42.193Z,15.50
2023-01-29T23:34:10.553Z,16.25
2023-01-29T23:36:38.879Z,15.00
2023-01-29T23:39:07.451Z,14.00
2023-01-29T23:41:36.087Z,16.50
2023-01-29T23:44:04.651Z,15.00
2023-01-29T23:46:33.305Z,15.00
2023-01-29T23:49:01.864Z,15.75
2023-01-29T23:51:30.377Z,16.25
2023-01-29T23:53:58.712Z,16.75
2023-01-29T23:56:27.086Z,16.75
2023-01-29T23:58:59.167Z,15.75
